Time;durP1;ratioP1;P1;durP2;ratioP2;P2;SDS_P1;SDS_P2;PMS_P1;PMS_P2;Temp;Humidity;BMP_temperature;BMP_pressure;BME280_temperature;BME280_humidity;BME280_pressure;Samples;Min_cycle;Max_cycle;Signal;HPM_P1;HPM_P2
2023/09/17 00:00:09;;;;;;;27.67;18.02;;;;;;;25.50;46.77;101565.03;4981319;28;20050;-35
2023/09/17 00:02:36;;;;;;;26.63;17.45;;;;;;;25.49;47.00;101570.66;4982894;28;20174;-36
2023/09/17 00:05:03;;;;;;;25.92;17.60;;;;;;;25.46;46.76;101563.72;4978470;28;20050;-36
2023/09/17 00:07:30;;;;;;;26.48;17.75;;;;;;;25.45;46.86;101566.59;4983544;28;20359;-36
2023/09/17 00:09:57;;;;;;;25.75;17.33;;;;;;;25.44;46.94;101565.75;4979289;28;20066;-35
2023/09/17 00:12:24;;;;;;;24.00;16.60;;;;;;;25.43;46.89;101563.25;4979350;28;20441;-35
2023/09/17 00:14:51;;;;;;;25.52;17.08;;;;;;;25.41;46.93;101565.28;4985334;28;20890;-35
2023/09/17 00:17:18;;;;;;;25.48;16.77;;;;;;;25.40;46.66;101564.44;4978521;28;20058;-35
2023/09/17 00:19:45;;;;;;;24.20;16.35;;;;;;;25.38;46.61;101555.66;4980902;28;21645;-35
2023/09/17 00:22:14;;;;;;;23.65;15.75;;;;;;;25.35;46.83;101554.16;4978491;28;20529;-35
2023/09/17 00:24:41;;;;;;;22.90;15.40;;;;;;;25.35;47.09;101550.59;4983175;28;20089;-35
2023/09/17 00:27:08;;;;;;;24.83;16.92;;;;;;;25.34;46.82;101548.91;4987020;28;20059;-35
2023/09/17 00:29:35;;;;;;;22.70;16.02;;;;;;;25.33;47.02;101539.94;4984108;28;20081;-35
2023/09/17 00:32:01;;;;;;;21.98;15.18;;;;;;;25.31;47.00;101536.56;4984734;28;20069;-35
2023/09/17 00:34:28;;;;;;;23.02;15.15;;;;;;;25.30;46.93;101539.47;4984529;28;20422;-35
2023/09/17 00:36:55;;;;;;;20.60;15.07;;;;;;;25.28;46.66;101538.78;4986321;28;20073;-35
2023/09/17 00:39:22;;;;;;;23.75;16.13;;;;;;;25.27;47.12;101542.53;4985227;28;20109;-35
2023/09/17 00:41:48;;;;;;;22.05;14.95;;;;;;;25.25;46.94;101536.47;4985012;28;20054;-35
2023/09/17 00:44:15;;;;;;;20.88;14.35;;;;;;;25.24;47.08;101532.06;4988275;28;20059;-35
2023/09/17 00:46:42;;;;;;;22.15;14.80;;;;;;;25.22;46.98;101534.13;4983501;28;20047;-35
2023/09/17 00:49:13;;;;;;;22.60;14.93;;;;;;;25.20;46.80;101515.28;4985339;28;20050;-35
2023/09/17 00:51:41;;;;;;;21.33;14.60;;;;;;;25.19;47.23;101520.91;4989403;28;20190;-35
2023/09/17 00:54:10;;;;;;;24.52;13.93;;;;;;;25.18;46.99;101524.66;4987580;28;20403;-35
2023/09/17 00:56:37;;;;;;;22.35;14.00;;;;;;;25.15;47.08;101520.44;4985308;28;20043;-35
2023/09/17 00:59:05;;;;;;;19.02;13.20;;;;;;;25.16;47.18;101524.00;4985587;28;20646;-35
2023/09/17 01:01:32;;;;;;;18.95;13.27;;;;;;;25.12;47.13;101523.50;4984547;28;20046;-36
2023/09/17 01:04:00;;;;;;;21.42;14.57;;;;;;;25.11;46.89;101521.84;4982538;28;20046;-35
2023/09/17 01:06:30;;;;;;;19.02;12.98;;;;;;;25.10;47.22;101515.56;4983950;28;20055;-35
2023/09/17 01:08:58;;;;;;;19.70;13.23;;;;;;;25.10;47.36;101503.88;4986117;28;20438;-35
2023/09/17 01:11:25;;;;;;;19.50;13.73;;;;;;;25.08;47.09;101495.03;4989789;28;20134;-35
2023/09/17 01:14:07;;;;;;;18.90;13.00;;;;;;;25.07;46.90;101496.06;4990585;28;20421;-35
2023/09/17 01:16:34;;;;;;;17.38;11.90;;;;;;;25.08;47.18;101500.47;4987647;28;20048;-35
2023/09/17 01:19:03;;;;;;;18.10;13.05;;;;;;;25.06;47.11;101500.66;4985553;28;20047;-35
2023/09/17 01:21:38;;;;;;;19.75;13.27;;;;;;;25.04;47.18;101499.97;4988623;28;20350;-35
2023/09/17 01:24:13;;;;;;;18.42;12.70;;;;;;;25.04;46.93;101505.41;4990413;28;20054;-36
2023/09/17 01:26:44;;;;;;;18.13;12.10;;;;;;;25.03;46.86;101503.72;4991604;28;20046;-35
2023/09/17 01:29:13;;;;;;;17.02;12.18;;;;;;;25.02;46.89;101491.22;4987650;28;20050;-35
2023/09/17 01:31:40;;;;;;;17.40;11.98;;;;;;;25.01;46.84;101489.53;4985718;28;20445;-35
2023/09/17 01:34:07;;;;;;;18.27;12.85;;;;;;;25.00;47.42;101487.81;4985224;28;20508;-35
2023/09/17 01:36:39;;;;;;;17.83;11.98;;;;;;;25.01;47.16;101480.56;4984822;28;20053;-35
2023/09/17 01:39:14;;;;;;;17.30;11.15;;;;;;;24.98;46.75;101484.47;4983757;28;20057;-35
2023/09/17 01:41:44;;;;;;;18.30;12.23;;;;;;;24.97;47.27;101474.66;4979963;28;20054;-36
2023/09/17 01:44:12;;;;;;;16.67;11.80;;;;;;;24.98;46.97;101472.78;4982684;28;20053;-35
2023/09/17 01:46:40;;;;;;;14.75;10.45;;;;;;;24.96;47.01;101475.66;4983143;28;20043;-35
2023/09/17 01:49:12;;;;;;;16.33;10.52;;;;;;;24.96;47.15;101474.81;4981398;28;20065;-35
2023/09/17 01:51:39;;;;;;;15.43;10.35;;;;;;;24.94;46.67;101469.59;4983595;28;20157;-35
2023/09/17 01:54:06;;;;;;;18.55;11.73;;;;;;;24.94;47.04;101469.59;4981840;28;20061;-35
2023/09/17 01:56:39;;;;;;;13.95;9.98;;;;;;;24.93;46.79;101465.19;4982479;28;20038;-35
2023/09/17 01:59:06;;;;;;;12.75;9.48;;;;;;;24.93;47.19;101458.94;4983263;28;20042;-35
2023/09/17 02:01:33;;;;;;;15.25;10.55;;;;;;;24.91;46.74;101459.09;4975930;28;20090;-35
2023/09/17 02:04:01;;;;;;;16.50;11.40;;;;;;;24.92;47.05;101457.22;4983338;28;20181;-35
2023/09/17 02:06:28;;;;;;;16.45;10.70;;;;;;;24.90;46.84;101456.59;4983216;28;20046;-35
2023/09/17 02:08:54;;;;;;;15.40;9.70;;;;;;;24.89;47.38;101469.31;4983251;28;20069;-35
2023/09/17 02:11:21;;;;;;;14.82;9.75;;;;;;;24.88;47.09;101473.03;4983148;28;20050;-35
2023/09/17 02:13:48;;;;;;;12.88;9.20;;;;;;;24.88;47.16;101467.59;4982297;28;20054;-35
2023/09/17 02:16:15;;;;;;;14.70;9.50;;;;;;;24.87;46.80;101476.75;5012052;28;20051;-35
2023/09/17 02:18:42;;;;;;;12.90;9.07;;;;;;;24.86;47.12;101475.94;4982056;28;20524;-35
2023/09/17 02:21:08;;;;;;;14.23;9.75;;;;;;;24.85;46.97;101478.84;4982618;28;20058;-35
2023/09/17 02:23:35;;;;;;;13.30;9.65;;;;;;;24.84;47.13;101479.84;4979986;28;20497;-35
2023/09/17 02:26:01;;;;;;;13.68;9.40;;;;;;;24.82;46.82;101477.31;4982741;28;20050;-35
2023/09/17 02:28:29;;;;;;;12.25;9.50;;;;;;;24.81;47.23;101477.50;4982875;28;20046;-35
2023/09/17 02:30:59;;;;;;;12.95;8.85;;;;;;;24.81;46.89;101474.81;4980754;28;20590;-35
2023/09/17 02:33:26;;;;;;;14.73;8.82;;;;;;;24.80;47.09;101470.38;4977801;28;20050;-35
2023/09/17 02:35:53;;;;;;;13.48;9.32;;;;;;;24.78;47.16;101467.88;4982449;28;20113;-35
2023/09/17 02:38:19;;;;;;;13.98;9.27;;;;;;;24.79;47.18;101474.13;4979930;28;20061;-35
2023/09/17 02:40:46;;;;;;;12.20;8.77;;;;;;;24.78;47.50;101467.03;4979892;28;20201;-35
2023/09/17 02:43:13;;;;;;;13.50;9.32;;;;;;;24.77;46.91;101465.34;4983932;28;20634;-35
2023/09/17 02:45:40;;;;;;;13.30;9.18;;;;;;;24.76;47.32;101469.06;4983579;28;20721;-35
2023/09/17 02:48:07;;;;;;;12.50;9.00;;;;;;;24.75;46.66;101473.66;4981635;28;20046;-35
2023/09/17 02:50:33;;;;;;;13.35;9.60;;;;;;;24.74;46.96;101477.41;4981843;28;20446;-35
2023/09/17 02:53:00;;;;;;;12.48;8.45;;;;;;;24.74;47.42;101476.56;4981640;28;20058;-35
2023/09/17 02:55:27;;;;;;;12.20;8.68;;;;;;;24.73;46.83;101472.16;4980569;28;20050;-35
2023/09/17 02:57:54;;;;;;;13.10;8.32;;;;;;;24.72;46.91;101475.88;4980481;28;20430;-35
2023/09/17 03:00:21;;;;;;;11.52;8.60;;;;;;;24.71;47.29;101471.50;4983961;28;20054;-35
2023/09/17 03:02:54;;;;;;;14.27;8.27;;;;;;;24.71;47.21;101474.19;4981340;28;20058;-35
2023/09/17 03:05:21;;;;;;;13.20;9.05;;;;;;;24.69;47.26;101479.81;4980505;28;20050;-35
2023/09/17 03:07:47;;;;;;;10.60;6.70;;;;;;;24.69;46.94;101478.97;4988520;28;20346;-35
2023/09/17 03:10:18;;;;;;;12.10;8.13;;;;;;;24.68;46.83;101478.09;4989685;28;20085;-35
2023/09/17 03:12:46;;;;;;;11.45;8.10;;;;;;;24.66;47.22;101480.19;4989859;28;20058;-35
2023/09/17 03:15:13;;;;;;;10.52;7.97;;;;;;;24.67;47.18;101484.56;4982510;28;20477;-35
2023/09/17 03:17:41;;;;;;;10.68;7.32;;;;;;;24.66;47.33;101473.91;4979999;28;20047;-35
2023/09/17 03:20:17;;;;;;;11.73;7.85;;;;;;;24.65;47.00;101473.06;4981299;28;20054;-35
2023/09/17 03:22:44;;;;;;;12.93;7.68;;;;;;;24.65;47.30;101472.25;4977539;28;20086;-35
2023/09/17 03:25:12;;;;;;;10.05;7.30;;;;;;;24.61;47.14;101467.19;4982131;28;20149;-35
2023/09/17 03:27:41;;;;;;;10.82;7.00;;;;;;;24.61;47.34;101463.63;4984264;28;20058;-35
2023/09/17 03:30:08;;;;;;;9.60;6.63;;;;;;;24.61;47.48;101463.63;4982215;28;20050;-35
2023/09/17 03:32:35;;;;;;;11.95;7.45;;;;;;;24.59;47.05;101447.53;4981860;28;20469;-35
2023/09/17 03:35:15;;;;;;;9.95;7.45;;;;;;;24.59;47.17;101454.81;5009538;28;20042;-35
2023/09/17 03:37:43;;;;;;;9.82;7.20;;;;;;;24.58;46.93;101447.72;4983427;28;20038;-35
2023/09/17 03:40:11;;;;;;;11.93;8.10;;;;;;;24.57;47.68;101446.03;4982226;28;20098;-35
2023/09/17 03:42:39;;;;;;;9.35;6.57;;;;;;;24.56;47.48;101442.50;4980838;28;20058;-35
2023/09/17 03:45:09;;;;;;;9.30;7.07;;;;;;;24.55;47.42;101440.78;4982354;28;20109;-35
2023/09/17 03:47:37;;;;;;;9.00;6.28;;;;;;;24.54;46.97;101447.22;4981231;28;20060;-35
2023/09/17 03:50:04;;;;;;;10.45;7.32;;;;;;;24.53;47.06;101434.72;4981387;28;20556;-35
2023/09/17 03:52:33;;;;;;;10.23;7.25;;;;;;;24.53;47.30;101434.72;4981815;28;20053;-35
2023/09/17 03:55:01;;;;;;;9.60;6.65;;;;;;;24.53;47.17;101436.59;4981346;28;20498;-34
2023/09/17 03:57:29;;;;;;;9.15;7.00;;;;;;;24.51;47.22;101434.03;4979786;28;20335;-35
2023/09/17 03:59:55;;;;;;;9.18;6.65;;;;;;;24.51;47.44;101433.19;4981606;28;20109;-34
2023/09/17 04:02:22;;;;;;;8.73;6.35;;;;;;;24.50;47.19;101429.66;4976537;28;20371;-34
2023/09/17 04:04:49;;;;;;;9.15;6.28;;;;;;;24.50;46.94;101434.25;4981316;28;20401;-34
2023/09/17 04:07:15;;;;;;;9.27;6.82;;;;;;;24.49;47.23;101425.25;4979163;28;20331;-34
2023/09/17 04:09:42;;;;;;;8.98;6.53;;;;;;;24.49;47.57;101432.56;4978624;28;20470;-34
2023/09/17 04:12:09;;;;;;;9.88;6.65;;;;;;;24.47;47.13;101440.84;4981207;28;20046;-34
2023/09/17 04:14:36;;;;;;;8.82;6.45;;;;;;;24.46;47.18;101433.75;4983180;28;20053;-34
2023/09/17 04:17:04;;;;;;;9.23;6.68;;;;;;;24.46;47.39;101438.34;4983711;28;20128;-34
2023/09/17 04:19:32;;;;;;;8.02;5.93;;;;;;;24.44;47.53;101424.94;4981257;28;20435;-34
2023/09/17 04:21:59;;;;;;;8.52;6.30;;;;;;;24.43;47.83;101423.28;4981979;28;20050;-34
2023/09/17 04:24:26;;;;;;;9.70;6.20;;;;;;;24.44;47.29;101426.81;4982602;28;20046;-34
2023/09/17 04:26:53;;;;;;;8.32;6.10;;;;;;;24.44;47.54;101421.41;4982734;28;20379;-34
2023/09/17 04:29:20;;;;;;;8.55;6.03;;;;;;;24.42;47.62;101421.59;4980449;28;20418;-34
2023/09/17 04:31:47;;;;;;;7.45;5.47;;;;;;;24.42;47.74;101418.88;4977162;28;20293;-34
2023/09/17 04:34:14;;;;;;;8.77;5.80;;;;;;;24.41;47.37;101419.91;4982925;28;20097;-34
2023/09/17 04:36:40;;;;;;;8.60;5.88;;;;;;;24.40;47.55;101417.38;4980317;28;20042;-34
2023/09/17 04:39:12;;;;;;;7.47;5.53;;;;;;;24.39;47.72;101427.38;4980367;28;20389;-34
2023/09/17 04:41:39;;;;;;;7.07;5.55;;;;;;;24.39;47.14;101424.66;4980168;28;20046;-34
2023/09/17 04:44:10;;;;;;;6.57;4.95;;;;;;;24.39;47.55;101416.53;4983272;28;20112;-34
2023/09/17 04:46:40;;;;;;;8.95;5.88;;;;;;;24.37;47.46;101416.69;4982392;28;20141;-34
2023/09/17 04:49:07;;;;;;;8.30;5.88;;;;;;;24.37;47.51;101419.41;4982458;28;20057;-34
2023/09/17 04:51:34;;;;;;;8.05;5.80;;;;;;;24.36;47.54;101416.84;5015182;28;20050;-34
2023/09/17 04:54:02;;;;;;;6.97;5.32;;;;;;;24.36;47.45;101416.84;4979690;28;20050;-33
2023/09/17 04:56:32;;;;;;;7.93;5.50;;;;;;;24.34;47.43;101417.03;4983394;28;20038;-34
2023/09/17 04:58:59;;;;;;;7.60;5.20;;;;;;;24.34;47.12;101419.75;4982728;28;20070;-34
2023/09/17 05:01:27;;;;;;;7.80;5.15;;;;;;;24.33;47.19;101414.53;4978172;28;20054;-34
2023/09/17 05:03:54;;;;;;;7.85;5.25;;;;;;;24.33;47.36;101417.25;4980222;28;20050;-34
2023/09/17 05:06:21;;;;;;;8.38;5.38;;;;;;;24.32;48.00;101419.13;4981549;28;20066;-34
2023/09/17 05:08:48;;;;;;;6.53;4.70;;;;;;;24.32;47.92;101421.81;4984296;28;20702;-34
2023/09/17 05:11:15;;;;;;;7.07;5.15;;;;;;;24.31;47.75;101421.97;4990739;28;20054;-34
2023/09/17 05:13:42;;;;;;;9.18;5.30;;;;;;;24.31;47.20;101421.97;4991144;28;20086;-34
2023/09/17 05:16:08;;;;;;;6.55;4.75;;;;;;;24.31;47.22;101416.56;4986698;28;20072;-34
2023/09/17 05:18:35;;;;;;;7.55;5.28;;;;;;;24.30;47.34;101415.72;4989429;28;20050;-34
2023/09/17 05:21:02;;;;;;;7.03;4.93;;;;;;;24.29;47.74;101424.06;4989195;28;20453;-34
2023/09/17 05:23:28;;;;;;;7.50;5.20;;;;;;;24.28;47.50;101419.63;4989352;28;20058;-34
2023/09/17 05:25:55;;;;;;;7.47;4.88;;;;;;;24.28;47.48;101422.34;4987715;28;20101;-33
2023/09/17 05:28:23;;;;;;;7.90;4.93;;;;;;;24.28;47.96;101425.03;4989340;28;20046;-33
2023/09/17 05:30:52;;;;;;;7.53;4.95;;;;;;;24.28;47.31;101430.47;4989327;28;20084;-34
2023/09/17 05:33:19;;;;;;;6.88;4.78;;;;;;;24.28;47.48;101433.19;4987094;28;20730;-34
2023/09/17 05:35:46;;;;;;;6.43;4.43;;;;;;;24.26;47.84;101432.53;4985992;28;20046;-34
2023/09/17 05:38:12;;;;;;;6.53;4.47;;;;;;;24.26;47.91;101429.81;4986213;28;20042;-34
2023/09/17 05:40:39;;;;;;;6.35;4.47;;;;;;;24.26;47.43;101427.94;4984108;28;20058;-34
2023/09/17 05:43:06;;;;;;;5.40;4.15;;;;;;;24.25;47.66;101423.56;4983590;28;20057;-34
2023/09/17 05:45:32;;;;;;;5.22;4.38;;;;;;;24.25;47.25;101434.41;4984368;28;20077;-34
2023/09/17 05:47:59;;;;;;;6.97;4.13;;;;;;;24.25;47.90;101422.72;4983490;28;20108;-34
2023/09/17 05:50:26;;;;;;;5.38;4.25;;;;;;;24.24;47.25;101426.44;4982984;28;20058;-34
2023/09/17 05:52:52;;;;;;;6.30;4.60;;;;;;;24.22;47.46;101423.91;4984409;28;20054;-34
2023/09/17 05:55:19;;;;;;;7.05;4.32;;;;;;;24.23;48.00;101436.44;4982975;28;20058;-33
2023/09/17 05:57:46;;;;;;;6.45;4.72;;;;;;;24.21;47.89;101432.25;4983966;28;20046;-34
2023/09/17 06:00:13;;;;;;;5.60;4.13;;;;;;;24.21;47.43;101437.66;4984451;28;20477;-34
2023/09/17 06:02:40;;;;;;;6.55;4.88;;;;;;;24.18;47.96;101438.84;4982349;28;20061;-34
2023/09/17 06:05:08;;;;;;;5.00;4.00;;;;;;;24.17;47.36;101439.88;4984042;28;20327;-34
2023/09/17 06:07:34;;;;;;;7.35;4.70;;;;;;;24.14;47.23;101434.81;4984892;28;20051;-34
2023/09/17 06:10:01;;;;;;;4.78;3.90;;;;;;;24.13;47.89;101442.09;4983292;28;20746;-34
2023/09/17 06:12:28;;;;;;;5.97;4.30;;;;;;;24.12;47.89;101440.41;4985424;28;20046;-33
2023/09/17 06:14:54;;;;;;;5.07;3.80;;;;;;;24.11;47.93;101444.13;4985098;28;20046;-34
2023/09/17 06:17:21;;;;;;;6.43;4.35;;;;;;;24.10;47.55;101445.16;4977854;28;20046;-33
2023/09/17 06:19:47;;;;;;;6.45;3.70;;;;;;;24.07;47.44;101434.69;4983273;28;20145;-33
2023/09/17 06:22:14;;;;;;;5.40;3.95;;;;;;;24.08;47.78;101435.50;4982887;28;20385;-34
2023/09/17 06:24:41;;;;;;;4.88;3.55;;;;;;;24.05;47.87;101436.72;4980458;28;20061;-34
2023/09/17 06:27:07;;;;;;;5.00;3.63;;;;;;;24.06;47.72;101437.56;4983097;28;20054;-34
2023/09/17 06:29:34;;;;;;;6.18;4.22;;;;;;;24.05;47.43;101436.72;4984157;28;20062;-34
2023/09/17 06:32:01;;;;;;;7.22;4.20;;;;;;;24.05;48.11;101428.63;4979233;28;20058;-35
2023/09/17 06:34:29;;;;;;;7.10;5.13;;;;;;;24.04;48.20;101429.63;4980748;28;20046;-34
2023/09/17 06:36:55;;;;;;;8.60;5.28;;;;;;;24.05;48.01;101439.44;4982357;28;20590;-34
2023/09/17 06:39:22;;;;;;;12.55;8.57;;;;;;;24.04;48.83;101436.91;4981183;28;20077;-34
2023/09/17 06:41:49;;;;;;;19.45;12.90;;;;;;;24.05;48.89;101428.63;4985997;28;20054;-34
2023/09/17 06:44:15;;;;;;;22.63;15.65;;;;;;;24.05;49.42;101436.72;4983561;28;20446;-34
2023/09/17 06:46:42;;;;;;;23.02;15.07;;;;;;;24.03;49.42;101441.47;4982825;28;20042;-34
2023/09/17 06:49:09;;;;;;;23.90;15.90;;;;;;;24.02;49.53;101430.81;4988069;28;20064;-35
2023/09/17 06:51:36;;;;;;;26.83;15.95;;;;;;;24.01;48.91;101427.28;4994079;28;20050;-34
2023/09/17 06:54:03;;;;;;;26.83;16.65;;;;;;;24.01;49.67;101434.56;4989835;28;20136;-34
2023/09/17 06:56:30;;;;;;;26.05;17.50;;;;;;;23.99;49.45;101431.19;4990755;28;20429;-34
2023/09/17 06:58:57;;;;;;;28.35;18.55;;;;;;;24.00;49.47;101430.16;4997539;28;20042;-35
2023/09/17 07:01:23;;;;;;;26.40;18.23;;;;;;;23.98;49.54;101433.06;4987978;28;20046;-34
2023/09/17 07:03:52;;;;;;;26.73;18.02;;;;;;;23.97;49.04;101428.66;4983798;28;20139;-34
2023/09/17 07:06:21;;;;;;;28.88;18.30;;;;;;;23.97;49.65;101419.69;4975469;28;20105;-35
2023/09/17 07:08:47;;;;;;;29.13;18.88;;;;;;;23.96;49.73;101421.56;4978708;28;20116;-35
2023/09/17 07:11:14;;;;;;;27.83;17.80;;;;;;;23.96;49.80;101423.41;4978736;28;20055;-35
2023/09/17 07:13:41;;;;;;;32.17;18.80;;;;;;;23.96;49.36;101435.09;4979272;28;20054;-35
2023/09/17 07:16:08;;;;;;;28.58;17.73;;;;;;;23.95;48.93;101425.28;4978005;28;20059;-34
2023/09/17 07:18:34;;;;;;;27.05;17.10;;;;;;;23.94;49.58;101430.88;4978577;28;20054;-35
2023/09/17 07:21:01;;;;;;;30.73;20.13;;;;;;;23.93;49.68;101432.75;4979943;28;20451;-35
2023/09/17 07:23:27;;;;;;;37.13;23.15;;;;;;;23.93;49.98;101423.78;4989980;28;20785;-37
2023/09/17 07:25:54;;;;;;;35.13;22.15;;;;;;;23.92;49.77;101436.50;4988080;28;20109;-35
2023/09/17 07:28:21;;;;;;;40.22;23.55;;;;;;;23.91;49.38;101432.06;4992395;28;20130;-35
2023/09/17 07:30:55;;;;;;;38.60;22.77;;;;;;;23.88;50.07;101430.59;4990959;28;20050;-35
2023/09/17 07:33:23;;;;;;;39.78;24.65;;;;;;;23.89;49.76;101426.84;4984221;28;20074;-36
2023/09/17 07:35:50;;;;;;;39.45;24.48;;;;;;;23.88;49.72;101427.03;4986447;28;20501;-35
2023/09/17 07:38:16;;;;;;;38.35;24.42;;;;;;;23.88;49.78;101433.28;4984471;28;20068;-35
2023/09/17 07:40:44;;;;;;;41.97;25.33;;;;;;;23.88;49.86;101422.47;4980073;28;20048;-35
2023/09/17 07:43:11;;;;;;;45.83;26.63;;;;;;;23.87;49.50;101423.47;4980954;28;20050;-35
2023/09/17 07:45:38;;;;;;;39.83;25.60;;;;;;;23.88;50.02;101427.03;4979549;28;20050;-35
2023/09/17 07:48:05;;;;;;;36.30;24.02;;;;;;;23.88;50.08;101427.03;4980035;28;20051;-34
2023/09/17 07:50:31;;;;;;;41.05;23.95;;;;;;;23.87;50.23;101426.16;4978664;28;21519;-34
2023/09/17 07:52:59;;;;;;;37.83;23.85;;;;;;;23.87;50.37;101431.56;4980010;28;20078;-34
2023/09/17 07:55:26;;;;;;;38.45;23.35;;;;;;;23.86;50.20;101434.47;4981207;28;20050;-35
2023/09/17 07:57:52;;;;;;;49.83;30.73;;;;;;;23.86;49.92;101440.72;4987849;28;20093;-35
2023/09/17 08:00:20;;;;;;;54.88;33.85;;;;;;;23.85;50.15;101441.75;4986141;28;20043;-35
2023/09/17 08:02:48;;;;;;;56.70;34.75;;;;;;;23.86;50.28;101445.31;4979850;28;20128;-35
2023/09/17 08:05:15;;;;;;;51.33;32.78;;;;;;;23.85;50.22;101446.34;4977328;28;20047;-35
2023/09/17 08:07:42;;;;;;;56.50;33.75;;;;;;;23.85;50.47;101449.03;4978127;28;20038;-34
2023/09/17 08:10:09;;;;;;;59.88;36.17;;;;;;;23.84;50.56;101441.91;4984012;28;20054;-35
2023/09/17 08:12:36;;;;;;;57.67;35.85;;;;;;;23.84;50.23;101439.22;4981658;28;20054;-35
2023/09/17 08:15:03;;;;;;;58.58;35.53;;;;;;;23.84;50.08;101440.09;4981177;28;20057;-35
2023/09/17 08:17:30;;;;;;;60.33;36.63;;;;;;;23.82;50.42;101439.41;4983767;28;20092;-35
2023/09/17 08:19:58;;;;;;;58.38;36.25;;;;;;;23.83;50.49;101435.66;4978952;28;20105;-35
2023/09/17 08:22:27;;;;;;;57.92;34.58;;;;;;;23.83;50.26;101430.25;4979510;28;20097;-35
2023/09/17 08:24:53;;;;;;;57.28;35.53;;;;;;;23.84;50.41;101431.09;4978573;28;20042;-35
2023/09/17 08:27:21;;;;;;;57.10;35.80;;;;;;;23.83;50.72;101432.97;4979018;28;20389;-35
2023/09/17 08:29:48;;;;;;;54.20;33.30;;;;;;;23.82;50.84;101427.72;4977026;28;20078;-35
2023/09/17 08:32:14;;;;;;;62.33;36.40;;;;;;;23.82;50.32;101422.31;4975331;28;20104;-34
2023/09/17 08:34:41;;;;;;;73.50;43.42;;;;;;;23.83;50.72;101422.13;4984034;28;20054;-35
2023/09/17 08:37:08;;;;;;;89.82;54.30;;;;;;;23.84;50.65;101428.38;4983276;28;20046;-34
2023/09/17 08:39:34;;;;;;;88.80;55.97;;;;;;;23.83;50.46;101422.13;4975865;28;20386;-35
2023/09/17 08:42:01;;;;;;;85.82;53.28;;;;;;;23.84;50.56;101410.31;4981580;28;20051;-34
2023/09/17 08:44:31;;;;;;;81.55;51.08;;;;;;;23.85;51.17;101411.13;4976813;28;20100;-35
2023/09/17 08:46:59;;;;;;;71.00;43.05;;;;;;;23.85;51.41;101421.97;4981651;28;20055;-34
2023/09/17 08:49:26;;;;;;;66.43;39.78;;;;;;;23.85;51.37;101406.56;4983372;28;20078;-34
2023/09/17 08:51:56;;;;;;;54.85;34.05;;;;;;;23.86;51.52;101418.22;4982333;28;20093;-34
2023/09/17 08:54:28;;;;;;;48.80;29.20;;;;;;;23.85;51.50;101406.56;4989430;28;20066;-34
2023/09/17 08:56:59;;;;;;;38.75;24.25;;;;;;;23.85;51.65;101422.81;4986720;28;20055;-34
2023/09/17 08:59:29;;;;;;;31.65;20.48;;;;;;;23.86;51.14;101429.06;4983756;28;20101;-35
2023/09/17 09:02:00;;;;;;;25.30;16.88;;;;;;;23.85;51.55;101417.41;4983737;28;20046;-34
2023/09/17 09:04:29;;;;;;;21.30;13.88;;;;;;;23.86;51.76;101429.06;4989800;28;20058;-35
2023/09/17 09:06:55;;;;;;;18.70;12.02;;;;;;;23.85;51.54;101438.22;4987979;28;20083;-35
2023/09/17 09:09:23;;;;;;;14.32;10.38;;;;;;;23.83;51.70;101430.25;4986088;28;20061;-34
2023/09/17 09:11:50;;;;;;;14.65;9.40;;;;;;;23.82;51.32;101428.56;4988047;28;20043;-35
2023/09/17 09:14:17;;;;;;;11.35;7.93;;;;;;;23.83;51.32;101429.41;4987151;28;20051;-35
2023/09/17 09:16:44;;;;;;;9.77;6.50;;;;;;;23.82;51.35;101433.16;4983959;28;20467;-35
2023/09/17 09:19:11;;;;;;;9.68;5.57;;;;;;;23.81;51.46;101424.19;4982323;28;20105;-34
2023/09/17 09:21:38;;;;;;;13.07;6.18;;;;;;;23.80;51.85;101430.63;4980236;28;20053;-35
2023/09/17 09:24:05;;;;;;;10.85;5.53;;;;;;;23.81;51.89;101415.22;4980469;28;20051;-34
2023/09/17 09:26:36;;;;;;;19.70;8.70;;;;;;;23.80;52.13;101419.81;4980256;28;20043;-35
2023/09/17 09:29:07;;;;;;;25.27;15.43;;;;;;;23.80;52.06;101419.81;4982934;28;20051;-35
2023/09/17 09:31:34;;;;;;;42.58;23.67;;;;;;;23.81;51.73;101417.94;4980107;28;20061;-34
2023/09/17 09:34:02;;;;;;;58.60;33.75;;;;;;;23.82;51.81;101419.59;4982055;28;20078;-34
2023/09/17 09:36:33;;;;;;;62.15;34.75;;;;;;;23.82;51.84;101416.91;4982932;28;20695;-34
2023/09/17 09:39:01;;;;;;;54.35;32.47;;;;;;;23.84;51.81;101410.31;4980555;28;20042;-34
2023/09/17 09:41:32;;;;;;;50.60;30.20;;;;;;;23.84;52.04;101415.72;4980003;28;20042;-34
2023/09/17 09:44:00;;;;;;;41.70;25.98;;;;;;;23.86;52.14;101426.34;4983545;28;20043;-34
2023/09/17 09:46:28;;;;;;;37.88;22.60;;;;;;;23.86;51.82;101429.91;4977891;28;20286;-34
2023/09/17 09:49:01;;;;;;;32.38;20.05;;;;;;;23.86;52.07;101407.41;4984723;28;20060;-33
2023/09/17 09:51:31;;;;;;;26.95;17.17;;;;;;;23.88;52.09;101416.22;4984504;28;20109;-33
2023/09/17 09:53:58;;;;;;;28.60;16.35;;;;;;;23.87;52.27;101412.63;4982569;28;20116;-34
2023/09/17 09:56:28;;;;;;;25.35;15.23;;;;;;;23.88;51.71;101413.50;4979749;28;20058;-34
2023/09/17 09:58:55;;;;;;;22.02;13.52;;;;;;;23.89;51.67;101409.75;4983430;28;20434;-34
2023/09/17 10:01:23;;;;;;;21.45;12.82;;;;;;;23.88;51.36;101410.78;4984360;28;22249;-34
2023/09/17 10:03:50;;;;;;;18.60;12.13;;;;;;;23.89;51.53;101407.06;4983223;28;20148;-34
2023/09/17 10:06:18;;;;;;;15.45;10.35;;;;;;;23.88;51.87;101394.53;4983090;28;20564;-34
2023/09/17 10:08:46;;;;;;;17.10;9.77;;;;;;;23.87;51.75;101393.69;4979718;28;20054;-34
2023/09/17 10:11:14;;;;;;;17.38;9.60;;;;;;;23.87;51.58;101384.72;4982962;28;20054;-34
2023/09/17 10:13:42;;;;;;;14.10;8.63;;;;;;;23.86;51.83;101383.88;4980500;28;20051;-34
2023/09/17 10:16:09;;;;;;;11.80;7.80;;;;;;;23.87;52.15;101382.00;4986644;28;20417;-35
2023/09/17 10:18:38;;;;;;;14.00;8.32;;;;;;;23.86;51.42;101385.75;4986850;28;20046;-34
2023/09/17 10:21:05;;;;;;;12.38;7.30;;;;;;;23.86;51.99;101380.34;4985375;28;20058;-35
2023/09/17 10:23:33;;;;;;;10.25;6.13;;;;;;;23.85;51.92;101384.06;4986791;28;20374;-34
2023/09/17 10:26:03;;;;;;;9.10;6.07;;;;;;;23.85;51.24;101371.38;4987941;28;20137;-35
2023/09/17 10:28:33;;;;;;;9.38;5.50;;;;;;;23.85;51.83;101365.13;4990295;28;20043;-34
2023/09/17 10:31:01;;;;;;;10.65;5.90;;;;;;;23.84;51.94;101367.00;4983900;28;20161;-35
2023/09/17 10:33:31;;;;;;;10.82;5.30;;;;;;;23.85;51.52;101362.41;4985505;28;20047;-34
2023/09/17 10:35:59;;;;;;;9.25;5.65;;;;;;;23.85;51.35;101360.53;4985874;28;20105;-35
2023/09/17 10:38:27;;;;;;;8.43;5.28;;;;;;;23.85;51.28;101355.13;4983521;28;20092;-35
2023/09/17 10:40:55;;;;;;;8.38;5.43;;;;;;;23.85;52.17;101352.41;4980421;28;20136;-34
2023/09/17 10:43:23;;;;;;;8.32;5.13;;;;;;;23.85;51.49;101343.47;4982679;28;20663;-35
2023/09/17 10:45:51;;;;;;;8.43;4.45;;;;;;;23.86;51.49;101347.84;4981148;28;20058;-34
2023/09/17 10:48:20;;;;;;;16.95;10.25;;;;;;;23.87;51.50;101354.94;4981178;28;20050;-35
2023/09/17 10:50:48;;;;;;;21.85;14.13;;;;;;;23.87;51.58;101353.06;4983686;28;20114;-34
2023/09/17 10:53:15;;;;;;;35.58;19.02;;;;;;;23.87;52.33;101344.94;4983158;28;20065;-34
2023/09/17 10:55:47;;;;;;;32.45;20.25;;;;;;;23.88;51.64;101353.94;4981837;28;20050;-35
2023/09/17 10:58:27;;;;;;;31.55;19.25;;;;;;;23.87;51.72;101355.78;4980256;28;20426;-35
2023/09/17 11:00:56;;;;;;;32.97;18.45;;;;;;;23.88;52.01;101359.34;4982492;28;20046;-34
2023/09/17 11:03:26;;;;;;;32.85;17.90;;;;;;;23.88;51.71;101356.66;4983007;28;20058;-35
2023/09/17 11:05:54;;;;;;;27.23;17.70;;;;;;;23.89;51.95;101358.31;4986206;28;20054;-34
2023/09/17 11:08:22;;;;;;;30.13;16.80;;;;;;;23.89;51.88;101363.75;4984065;28;20720;-34
2023/09/17 11:10:49;;;;;;;26.17;17.42;;;;;;;23.87;51.49;101366.59;4983472;28;20296;-34
2023/09/17 11:13:15;;;;;;;24.67;16.25;;;;;;;23.87;52.08;101365.75;4985708;28;20129;-35
2023/09/17 11:15:42;;;;;;;25.45;16.13;;;;;;;23.87;51.48;101366.59;4986511;28;20054;-35